createdAt,value
2019-05-11T00:02:22.407Z,6.83
2019-05-11T00:04:50.844Z,7.40
2019-05-11T00:07:19.354Z,7.20
2019-05-11T00:09:57.383Z,7.13
2019-05-11T00:12:17.994Z,6.57
2019-05-11T00:14:46.427Z,6.20
2019-05-11T00:17:14.899Z,6.53
2019-05-11T00:19:43.329Z,6.70
2019-05-11T00:22:11.850Z,7.30
2019-05-11T00:24:40.318Z,6.40
2019-05-11T00:27:08.816Z,6.23
2019-05-11T00:29:37.276Z,7.43
2019-05-11T00:32:05.808Z,7.30
2019-05-11T00:34:34.257Z,7.23
2019-05-11T00:37:02.730Z,6.90
2019-05-11T00:39:31.169Z,7.20
2019-05-11T00:41:59.665Z,7.03
2019-05-11T00:44:28.170Z,6.73
2019-05-11T00:46:56.830Z,7.00
2019-05-11T00:49:25.325Z,6.50
2019-05-11T00:51:53.813Z,5.90
2019-05-11T00:54:22.267Z,6.60
2019-05-11T00:56:50.789Z,6.70
2019-05-11T00:59:21.767Z,5.90
2019-05-11T01:01:49.490Z,6.43
2019-05-11T01:04:17.956Z,6.47
2019-05-11T01:06:46.466Z,6.20
2019-05-11T01:09:14.926Z,6.40
2019-05-11T01:11:43.441Z,6.70
2019-05-11T01:14:11.873Z,6.63
2019-05-11T01:16:40.403Z,6.30
2019-05-11T01:19:08.850Z,6.00
2019-05-11T01:21:37.326Z,6.00
2019-05-11T01:24:05.796Z,6.33
2019-05-11T01:26:34.257Z,5.80
2019-05-11T01:29:02.736Z,5.97
2019-05-11T01:31:31.199Z,5.97
2019-05-11T01:33:59.642Z,5.90
2019-05-11T01:36:28.118Z,6.40
2019-05-11T01:38:56.584Z,6.43
2019-05-11T01:41:25.131Z,5.80
2019-05-11T01:43:53.549Z,6.00
2019-05-11T01:46:22.021Z,6.37
2019-05-11T01:48:51.512Z,6.37
2019-05-11T01:51:19.999Z,6.80
2019-05-11T01:53:48.463Z,6.57
2019-05-11T01:56:16.937Z,6.57
2019-05-11T01:58:45.388Z,6.23
2019-05-11T02:01:13.929Z,6.53
2019-05-11T02:03:42.416Z,5.97
2019-05-11T02:06:10.894Z,6.60
2019-05-11T02:08:39.430Z,6.70
2019-05-11T02:11:16.007Z,6.17
2019-05-11T02:13:38.300Z,7.37
2019-05-11T02:16:06.780Z,6.97
2019-05-11T02:18:35.239Z,6.40
2019-05-11T02:21:03.739Z,7.20
2019-05-11T02:23:32.208Z,6.83
2019-05-11T02:26:00.689Z,6.77
2019-05-11T02:28:29.150Z,7.33
2019-05-11T02:30:57.658Z,7.50
2019-05-11T02:33:26.212Z,6.70
2019-05-11T02:35:54.685Z,7.47
2019-05-11T02:38:23.142Z,7.27
2019-05-11T02:40:51.606Z,8.03
2019-05-11T02:43:20.063Z,7.77
2019-05-11T02:45:48.610Z,8.57
2019-05-11T02:48:17.151Z,7.70
2019-05-11T02:50:45.952Z,7.60
2019-05-11T02:53:14.491Z,7.37
2019-05-11T02:55:42.940Z,8.50
2019-05-11T02:58:11.437Z,7.50
2019-05-11T03:00:45.033Z,8.20
2019-05-11T03:03:13.703Z,7.30
2019-05-11T03:05:42.202Z,7.80
2019-05-11T03:08:10.749Z,8.53
2019-05-11T03:10:39.205Z,8.00
2019-05-11T03:13:07.810Z,7.37
2019-05-11T03:15:36.250Z,9.27
2019-05-11T03:18:04.845Z,8.13
2019-05-11T03:20:33.279Z,8.70
2019-05-11T03:23:01.838Z,7.80
2019-05-11T03:25:30.281Z,8.40
2019-05-11T03:27:58.822Z,8.07
2019-05-11T03:30:27.309Z,8.10
2019-05-11T03:32:55.857Z,8.20
2019-05-11T03:35:24.303Z,7.77
2019-05-11T03:37:52.798Z,8.10
2019-05-11T03:40:21.265Z,8.17
2019-05-11T03:42:49.756Z,8.03
2019-05-11T03:45:18.290Z,7.40
2019-05-11T03:47:46.755Z,7.47
2019-05-11T03:50:15.279Z,7.60
2019-05-11T03:52:43.840Z,7.50
2019-05-11T03:55:12.563Z,8.13
2019-05-11T03:57:41.049Z,8.27
2019-05-11T04:00:10.053Z,7.57
2019-05-11T04:02:38.524Z,7.90
2019-05-11T04:05:07.368Z,8.90
2019-05-11T04:07:35.873Z,8.10
2019-05-11T04:10:07.029Z,7.87
2019-05-11T04:12:35.992Z,8.50
2019-05-11T04:15:07.358Z,7.63
2019-05-11T04:17:35.850Z,7.63
2019-05-11T04:20:05.869Z,8.07
2019-05-11T04:22:34.336Z,10.23
2019-05-11T04:25:03.536Z,10.07
2019-05-11T04:27:32.066Z,10.00
2019-05-11T04:30:00.577Z,9.40
2019-05-11T04:32:29.066Z,10.17
2019-05-11T04:34:57.891Z,9.67
2019-05-11T04:37:26.405Z,11.53
2019-05-11T04:39:54.869Z,10.77
2019-05-11T04:42:23.383Z,11.37
2019-05-11T04:44:52.592Z,11.53
2019-05-11T04:47:21.308Z,11.90
2019-05-11T04:49:49.782Z,10.83
2019-05-11T04:52:18.292Z,11.20
2019-05-11T04:54:46.787Z,12.40
2019-05-11T04:57:15.309Z,10.30
2019-05-11T04:59:43.755Z,11.50
2019-05-11T05:02:12.229Z,11.33
2019-05-11T05:04:40.673Z,11.57
2019-05-11T05:07:10.768Z,11.27
2019-05-11T05:09:42.943Z,10.73
2019-05-11T05:12:14.132Z,11.87
2019-05-11T05:14:39.742Z,11.97
2019-05-11T05:17:08.258Z,10.77
2019-05-11T05:19:36.740Z,10.30
2019-05-11T05:22:05.212Z,9.80
2019-05-11T05:24:33.777Z,10.33
2019-05-11T05:27:02.261Z,9.13
2019-05-11T05:29:30.930Z,9.13
2019-05-11T05:31:59.433Z,8.00
2019-05-11T05:34:28.116Z,8.00
2019-05-11T05:36:56.585Z,8.43
2019-05-11T05:39:25.073Z,8.60
2019-05-11T05:41:56.948Z,8.93
2019-05-11T05:44:27.318Z,7.20
2019-05-11T05:46:53.899Z,7.67
2019-05-11T05:49:22.398Z,7.57
2019-05-11T05:51:50.936Z,7.20
2019-05-11T05:54:19.427Z,7.17
2019-05-11T05:56:47.906Z,7.60
2019-05-11T05:59:16.421Z,7.50
2019-05-11T06:01:44.911Z,10.53
2019-05-11T06:04:13.382Z,15.30
2019-05-11T06:06:41.846Z,8.53
2019-05-11T06:09:10.339Z,6.43
2019-05-11T06:11:38.853Z,7.83
2019-05-11T06:14:07.340Z,6.63
2019-05-11T06:16:35.821Z,6.57
2019-05-11T06:19:04.361Z,6.90
2019-05-11T06:21:32.821Z,7.40
2019-05-11T06:24:07.099Z,5.40
2019-05-11T06:26:31.566Z,6.50
2019-05-11T06:29:00.072Z,6.13
2019-05-11T06:31:28.537Z,5.80
2019-05-11T06:33:58.817Z,5.60
2019-05-11T06:36:27.772Z,5.63
2019-05-11T06:38:56.291Z,5.43
2019-05-11T06:41:24.756Z,5.60
2019-05-11T06:44:01.638Z,5.70
2019-05-11T06:46:23.452Z,4.43
2019-05-11T06:48:52.120Z,4.53
2019-05-11T06:51:20.977Z,5.20
2019-05-11T06:53:49.495Z,4.60
2019-05-11T06:56:17.969Z,5.40
2019-05-11T06:58:46.514Z,5.00
2019-05-11T07:01:14.949Z,4.90
2019-05-11T07:03:46.168Z,4.70
2019-05-11T07:06:14.626Z,5.60
2019-05-11T07:08:43.249Z,4.40
2019-05-11T07:11:11.779Z,4.33
2019-05-11T07:13:40.514Z,3.77
2019-05-11T07:16:08.997Z,4.23
2019-05-11T07:18:37.489Z,4.27
2019-05-11T07:21:05.962Z,5.00
2019-05-11T07:23:34.437Z,4.13
2019-05-11T07:26:05.898Z,4.30
2019-05-11T07:28:34.367Z,3.97
2019-05-11T07:31:02.851Z,3.83
2019-05-11T07:33:31.322Z,4.20
2019-05-11T07:35:59.864Z,3.50
2019-05-11T07:38:28.342Z,4.23
2019-05-11T07:40:58.271Z,3.50
2019-05-11T07:43:28.776Z,3.83
2019-05-11T07:45:58.450Z,3.93
2019-05-11T07:48:27.864Z,3.77
2019-05-11T07:50:58.494Z,3.70
2019-05-11T07:53:27.939Z,3.47
2019-05-11T07:55:57.784Z,3.43
2019-05-11T07:58:28.503Z,4.07
2019-05-11T08:00:58.161Z,2.80
2019-05-11T08:03:28.374Z,3.10
2019-05-11T08:05:58.245Z,3.30
2019-05-11T08:08:28.386Z,4.43
2019-05-11T08:10:58.698Z,3.27
2019-05-11T08:13:28.277Z,3.13
2019-05-11T08:15:57.801Z,3.40
2019-05-11T08:18:28.198Z,3.00
2019-05-11T08:20:58.348Z,2.87
2019-05-11T08:23:28.553Z,3.73
2019-05-11T08:25:58.106Z,3.40
2019-05-11T08:28:28.735Z,3.43
2019-05-11T08:30:57.942Z,3.40
2019-05-11T08:33:28.431Z,3.23
2019-05-11T08:35:58.290Z,3.57
2019-05-11T08:38:28.524Z,3.47
2019-05-11T08:40:59.043Z,3.43
2019-05-11T08:43:28.481Z,3.43
2019-05-11T08:45:57.977Z,3.30
2019-05-11T08:48:28.250Z,3.50
2019-05-11T08:50:58.200Z,2.67
2019-05-11T08:53:28.393Z,3.30
2019-05-11T08:55:58.876Z,3.03
2019-05-11T08:58:27.879Z,3.03
2019-05-11T09:00:58.270Z,2.90
2019-05-11T09:03:28.434Z,2.83
2019-05-11T09:05:57.939Z,3.93
2019-05-11T09:08:28.324Z,3.27
2019-05-11T09:10:58.199Z,3.33
2019-05-11T09:13:27.922Z,3.10
2019-05-11T09:15:58.973Z,3.90
2019-05-11T09:18:28.095Z,3.20
2019-05-11T09:20:57.764Z,3.37
2019-05-11T09:23:34.597Z,3.20
2019-05-11T09:25:59.713Z,2.90
2019-05-11T09:28:29.473Z,2.97
2019-05-11T09:30:58.183Z,3.43
2019-05-11T09:33:28.327Z,3.00
2019-05-11T09:35:58.352Z,3.30
2019-05-11T09:38:27.728Z,3.40
2019-05-11T09:40:58.506Z,3.30
2019-05-11T09:43:28.318Z,3.37
2019-05-11T09:45:58.254Z,3.07
2019-05-11T09:48:28.409Z,3.00
2019-05-11T09:50:58.726Z,3.57
2019-05-11T09:53:28.310Z,2.93
2019-05-11T09:55:58.661Z,3.33
2019-05-11T09:58:28.128Z,2.67
2019-05-11T10:00:58.649Z,2.87
2019-05-11T10:03:28.121Z,3.47
2019-05-11T10:05:58.013Z,3.60
2019-05-11T10:08:28.704Z,4.27
2019-05-11T10:10:58.061Z,2.87
2019-05-11T10:13:27.863Z,3.30
2019-05-11T10:16:04.440Z,3.10
2019-05-11T10:18:28.184Z,3.47
2019-05-11T10:20:58.628Z,3.23
2019-05-11T10:23:28.071Z,2.93
2019-05-11T10:25:58.588Z,3.40
2019-05-11T10:28:28.428Z,3.20
2019-05-11T10:30:58.008Z,3.60
2019-05-11T10:33:28.149Z,3.80
2019-05-11T10:36:03.248Z,3.10
2019-05-11T10:38:48.707Z,3.10
2019-05-11T10:41:18.352Z,3.30
2019-05-11T10:43:49.027Z,3.20
2019-05-11T10:46:23.110Z,3.57
2019-05-11T10:48:48.351Z,3.60
2019-05-11T10:51:18.420Z,3.77
2019-05-11T10:53:51.674Z,3.17
2019-05-11T10:56:17.986Z,3.17
2019-05-11T10:58:48.232Z,3.80
2019-05-11T11:01:18.238Z,3.63
2019-05-11T11:03:48.302Z,3.37
2019-05-11T11:06:18.787Z,3.13
2019-05-11T11:08:48.633Z,3.20
2019-05-11T11:11:18.488Z,2.67
2019-05-11T11:13:48.051Z,2.80
2019-05-11T11:16:34.335Z,2.67
2019-05-11T11:18:48.598Z,2.80
2019-05-11T11:21:22.018Z,3.33
2019-05-11T11:23:48.133Z,3.00
2019-05-11T11:26:18.417Z,2.90
2019-05-11T11:28:47.793Z,3.80
2019-05-11T11:31:18.709Z,3.90
2019-05-11T11:33:49.008Z,2.73
2019-05-11T11:36:18.070Z,2.73
2019-05-11T11:38:47.775Z,3.30
2019-05-11T11:41:18.614Z,3.50
2019-05-11T11:43:48.405Z,3.20
2019-05-11T11:46:18.774Z,2.80
2019-05-11T11:48:48.902Z,3.10
2019-05-11T11:51:18.783Z,3.07
2019-05-11T11:53:47.936Z,3.30
2019-05-11T11:56:18.858Z,3.23
2019-05-11T11:58:48.768Z,3.23
2019-05-11T12:01:18.936Z,3.27
2019-05-11T12:03:48.942Z,3.47
2019-05-11T12:06:18.306Z,3.03
2019-05-11T12:08:49.671Z,3.20
2019-05-11T12:11:18.689Z,4.20
2019-05-11T12:13:47.890Z,3.70
2019-05-11T12:16:18.069Z,2.90
2019-05-11T12:18:48.687Z,3.47
2019-05-11T12:21:18.547Z,3.47
2019-05-11T12:23:48.588Z,3.20
2019-05-11T12:26:17.862Z,4.13
2019-05-11T12:28:48.694Z,3.53
2019-05-11T12:31:18.390Z,3.50
2019-05-11T12:33:48.224Z,3.70
2019-05-11T12:36:18.821Z,3.60
2019-05-11T12:38:48.845Z,3.60
2019-05-11T12:41:18.980Z,3.67
2019-05-11T12:43:49.048Z,4.73
2019-05-11T12:46:18.884Z,3.70
2019-05-11T12:48:48.630Z,3.60
2019-05-11T12:51:18.729Z,3.20
2019-05-11T12:53:47.745Z,4.40
2019-05-11T12:56:18.767Z,3.50
2019-05-11T12:58:48.986Z,3.90
2019-05-11T13:01:18.821Z,3.77
2019-05-11T13:03:49.210Z,3.40
2019-05-11T13:06:19.062Z,3.83
2019-05-11T13:08:49.135Z,3.50
2019-05-11T13:11:18.784Z,3.13
2019-05-11T13:13:48.426Z,2.73
2019-05-11T13:16:18.380Z,3.73
2019-05-11T13:18:48.709Z,3.10
2019-05-11T13:21:18.262Z,2.90
2019-05-11T13:23:48.902Z,3.20
2019-05-11T13:26:17.996Z,4.07
2019-05-11T13:28:48.341Z,3.83
2019-05-11T13:31:18.601Z,3.70
2019-05-11T13:33:48.083Z,3.43
2019-05-11T13:36:18.654Z,3.30
2019-05-11T13:38:48.248Z,3.37
2019-05-11T13:41:18.889Z,3.60
2019-05-11T13:43:48.597Z,3.80
2019-05-11T13:46:17.999Z,3.47
2019-05-11T13:48:47.706Z,3.60
2019-05-11T13:51:18.276Z,3.33
2019-05-11T13:53:48.269Z,3.83
2019-05-11T13:56:18.372Z,3.93
2019-05-11T13:58:48.724Z,4.30
2019-05-11T14:01:18.652Z,5.23
2019-05-11T14:03:48.474Z,3.70
2019-05-11T14:06:18.367Z,4.07
2019-05-11T14:08:48.149Z,4.03
2019-05-11T14:11:18.262Z,3.93
2019-05-11T14:13:48.063Z,3.63
2019-05-11T14:16:18.649Z,4.00
2019-05-11T14:18:48.852Z,3.73
2019-05-11T14:21:18.552Z,4.40
2019-05-11T14:23:48.404Z,3.97
2019-05-11T14:26:19.231Z,4.43
2019-05-11T14:28:48.111Z,4.40
2019-05-11T14:31:18.889Z,4.23
2019-05-11T14:33:48.935Z,4.57
2019-05-11T14:36:18.480Z,4.07
2019-05-11T14:38:48.810Z,4.17
2019-05-11T14:41:18.207Z,5.10
2019-05-11T14:43:49.040Z,4.83
2019-05-11T14:46:18.263Z,4.73
2019-05-11T14:48:48.159Z,4.30
2019-05-11T14:51:18.094Z,5.10
2019-05-11T14:53:48.140Z,4.80
2019-05-11T14:56:18.961Z,5.63
2019-05-11T14:58:49.249Z,4.80
2019-05-11T15:01:18.393Z,4.63
2019-05-11T15:03:48.718Z,5.37
2019-05-11T15:06:18.802Z,4.90
2019-05-11T15:08:48.025Z,5.17
2019-05-11T15:11:18.858Z,5.63
2019-05-11T15:13:48.806Z,5.07
2019-05-11T15:16:18.679Z,6.30
2019-05-11T15:18:48.557Z,6.87
2019-05-11T15:21:18.962Z,6.27
2019-05-11T15:23:47.956Z,5.70
2019-05-11T15:26:18.508Z,7.13
2019-05-11T15:28:48.660Z,6.13
2019-05-11T15:31:21.893Z,5.83
2019-05-11T15:33:48.869Z,5.90
2019-05-11T15:36:19.175Z,7.00
2019-05-11T15:38:48.097Z,5.43
2019-05-11T15:41:17.757Z,6.27
2019-05-11T15:43:48.034Z,6.37
2019-05-11T15:46:19.403Z,5.93
2019-05-11T15:48:56.737Z,6.80
2019-05-11T15:51:18.848Z,6.30
2019-05-11T15:53:50.264Z,6.27
2019-05-11T15:56:19.088Z,6.53
2019-05-11T15:58:48.579Z,6.47
2019-05-11T16:01:18.688Z,6.47
2019-05-11T16:03:50.136Z,6.00
2019-05-11T16:06:18.512Z,6.80
2019-05-11T16:08:47.459Z,6.13
2019-05-11T16:11:18.082Z,6.37
2019-05-11T16:13:48.370Z,6.77
2019-05-11T16:16:16.457Z,6.20
2019-05-11T16:18:45.012Z,5.57
2019-05-11T16:21:13.463Z,6.30
2019-05-11T16:23:42.061Z,5.63
2019-05-11T16:26:10.565Z,6.07
2019-05-11T16:28:39.070Z,6.13
2019-05-11T16:31:09.145Z,5.80
2019-05-11T16:33:37.950Z,6.37
2019-05-11T16:36:09.003Z,5.60
2019-05-11T16:38:37.966Z,5.80
2019-05-11T16:41:09.077Z,6.10
2019-05-11T16:43:38.562Z,6.40
2019-05-11T16:46:08.690Z,6.53
2019-05-11T16:48:38.307Z,6.50
2019-05-11T16:51:08.736Z,6.40
2019-05-11T16:53:39.016Z,6.13
2019-05-11T16:56:08.429Z,6.43
2019-05-11T16:58:40.612Z,6.93
2019-05-11T17:01:08.636Z,6.20
2019-05-11T17:03:38.430Z,6.73
2019-05-11T17:06:08.300Z,6.97
2019-05-11T17:08:38.302Z,7.10
2019-05-11T17:11:08.198Z,6.17
2019-05-11T17:13:37.930Z,6.40
2019-05-11T17:16:08.710Z,6.30
2019-05-11T17:18:37.016Z,6.00
2019-05-11T17:21:07.601Z,6.60
2019-05-11T17:23:38.100Z,6.40
2019-05-11T17:26:08.494Z,7.57
2019-05-11T17:28:37.945Z,6.67
2019-05-11T17:31:08.032Z,7.80
2019-05-11T17:33:38.429Z,7.50
2019-05-11T17:36:08.479Z,7.00
2019-05-11T17:38:38.932Z,8.07
2019-05-11T17:41:08.464Z,7.50
2019-05-11T17:43:38.688Z,7.03
2019-05-11T17:46:08.169Z,7.47
2019-05-11T17:48:38.792Z,7.67
2019-05-11T17:51:20.596Z,8.00
2019-05-11T17:53:37.796Z,7.60
2019-05-11T17:56:06.488Z,7.17
2019-05-11T17:58:34.993Z,7.43
2019-05-11T18:01:03.570Z,7.53
2019-05-11T18:03:32.056Z,8.93
2019-05-11T18:06:00.642Z,7.87
2019-05-11T18:08:30.866Z,8.37
2019-05-11T18:10:59.743Z,8.83
2019-05-11T18:13:28.582Z,9.20
2019-05-11T18:15:57.785Z,9.57
2019-05-11T18:18:28.933Z,9.40
2019-05-11T18:20:58.210Z,10.80
2019-05-11T18:23:28.264Z,12.53
2019-05-11T18:25:57.011Z,9.80
2019-05-11T18:28:25.857Z,9.83
2019-05-11T18:30:54.482Z,9.20
2019-05-11T18:33:22.979Z,8.70
2019-05-11T18:35:51.530Z,9.40
2019-05-11T18:38:20.038Z,9.23
2019-05-11T18:40:48.773Z,9.10
2019-05-11T18:43:18.818Z,9.57
2019-05-11T18:45:48.825Z,9.23
2019-05-11T18:48:18.578Z,9.87
2019-05-11T18:50:49.102Z,9.47
2019-05-11T18:53:18.720Z,8.87
2019-05-11T18:55:52.962Z,9.60
2019-05-11T18:58:29.456Z,8.20
2019-05-11T19:00:59.675Z,9.20
2019-05-11T19:03:28.310Z,8.50
2019-05-11T19:05:57.722Z,9.00
2019-05-11T19:08:29.368Z,8.07
2019-05-11T19:11:15.601Z,8.67
2019-05-11T19:13:47.833Z,7.90
2019-05-11T19:16:20.240Z,7.70
2019-05-11T19:18:52.372Z,7.70
2019-05-11T19:21:21.279Z,7.73
2019-05-11T19:23:52.110Z,9.40
2019-05-11T19:26:21.205Z,8.70
2019-05-11T19:28:49.679Z,10.20
2019-05-11T19:31:19.357Z,8.93
2019-05-11T19:33:48.885Z,8.47
2019-05-11T19:36:17.607Z,7.43
2019-05-11T19:38:47.859Z,7.03
2019-05-11T19:41:18.470Z,7.97
2019-05-11T19:43:48.263Z,6.97
2019-05-11T19:46:18.360Z,8.00
2019-05-11T19:48:47.528Z,7.57
2019-05-11T19:51:18.280Z,6.37
2019-05-11T19:53:48.282Z,6.27
2019-05-11T19:56:18.246Z,6.40
2019-05-11T19:58:48.493Z,6.27
2019-05-11T20:01:18.810Z,5.43
2019-05-11T20:03:47.467Z,6.27
2019-05-11T20:06:16.025Z,5.40
2019-05-11T20:08:44.538Z,5.83
2019-05-11T20:11:13.079Z,5.70
2019-05-11T20:13:41.585Z,5.73
2019-05-11T20:16:10.569Z,5.60
2019-05-11T20:18:39.008Z,5.70
2019-05-11T20:21:16.785Z,5.50
2019-05-11T20:23:38.049Z,5.80
2019-05-11T20:26:08.833Z,5.87
2019-05-11T20:28:37.827Z,4.83
2019-05-11T20:31:08.021Z,4.77
2019-05-11T20:33:38.541Z,4.73
2019-05-11T20:36:08.622Z,4.47
2019-05-11T20:38:38.384Z,3.70
2019-05-11T20:41:08.315Z,4.70
2019-05-11T20:43:36.923Z,4.30
2019-05-11T20:46:08.035Z,4.10
2019-05-11T20:48:38.059Z,3.90
2019-05-11T20:51:07.978Z,3.73
2019-05-11T20:53:36.031Z,3.80
2019-05-11T20:56:04.549Z,4.30
2019-05-11T20:58:34.653Z,4.03
2019-05-11T21:01:03.215Z,3.20
2019-05-11T21:03:31.677Z,3.70
2019-05-11T21:06:00.176Z,3.50
2019-05-11T21:08:29.009Z,4.30
2019-05-11T21:10:58.141Z,3.33
2019-05-11T21:13:28.221Z,3.57
2019-05-11T21:15:59.117Z,3.40
2019-05-11T21:18:28.765Z,3.17
2019-05-11T21:20:57.781Z,3.10
2019-05-11T21:23:28.822Z,3.53
2019-05-11T21:25:56.591Z,3.90
2019-05-11T21:28:25.052Z,3.17
2019-05-11T21:30:53.612Z,3.50
2019-05-11T21:33:22.055Z,3.40
2019-05-11T21:35:50.577Z,3.10
2019-05-11T21:38:19.042Z,3.40
2019-05-11T21:40:48.543Z,3.33
2019-05-11T21:43:17.091Z,3.00
2019-05-11T21:45:45.596Z,3.20
2019-05-11T21:48:14.045Z,2.77
2019-05-11T21:50:42.512Z,2.97
2019-05-11T21:53:11.003Z,3.60
2019-05-11T21:55:39.466Z,3.37
2019-05-11T21:58:09.057Z,2.70
2019-05-11T22:00:38.734Z,2.70
2019-05-11T22:03:09.863Z,2.97
2019-05-11T22:05:38.128Z,2.90
2019-05-11T22:08:08.562Z,2.70
2019-05-11T22:10:38.518Z,2.87
2019-05-11T22:13:07.286Z,3.00
2019-05-11T22:15:38.343Z,2.97
2019-05-11T22:18:08.007Z,3.13
2019-05-11T22:20:40.502Z,3.03
2019-05-11T22:23:08.385Z,3.13
2019-05-11T22:25:38.184Z,2.87
2019-05-11T22:28:08.453Z,2.57
2019-05-11T22:30:39.068Z,2.70
2019-05-11T22:33:08.821Z,2.80
2019-05-11T22:35:37.780Z,2.20
2019-05-11T22:38:08.182Z,3.67
2019-05-11T22:40:38.437Z,2.73
2019-05-11T22:43:09.364Z,2.33
2019-05-11T22:45:38.273Z,2.90
2019-05-11T22:48:07.909Z,2.50
2019-05-11T22:50:38.257Z,2.70
2019-05-11T22:53:08.746Z,3.27
2019-05-11T22:55:38.179Z,2.33
2019-05-11T22:58:08.472Z,2.80
2019-05-11T23:00:42.062Z,2.80
2019-05-11T23:03:10.949Z,2.50
2019-05-11T23:05:40.670Z,2.63
2019-05-11T23:08:09.158Z,2.87
2019-05-11T23:10:38.711Z,2.80
2019-05-11T23:13:08.325Z,2.43
2019-05-11T23:15:40.321Z,2.53
2019-05-11T23:18:08.759Z,2.60
2019-05-11T23:20:38.599Z,2.80
2019-05-11T23:23:08.788Z,1.90
2019-05-11T23:25:37.734Z,2.37
2019-05-11T23:28:06.280Z,2.47
2019-05-11T23:30:34.714Z,2.50
2019-05-11T23:33:03.335Z,2.50
2019-05-11T23:35:31.807Z,2.27
2019-05-11T23:38:00.366Z,2.57
2019-05-11T23:40:28.808Z,2.40
2019-05-11T23:42:57.924Z,2.03
2019-05-11T23:45:27.974Z,2.10
2019-05-11T23:47:58.890Z,2.50
2019-05-11T23:50:28.082Z,3.13
2019-05-11T23:53:05.977Z,2.10
2019-05-11T23:55:29.040Z,2.20
2019-05-11T23:57:57.938Z,2.37
